Eurocargo Valencia — IBGZ — position and weather

sailwx.info

Track history (hours):
 
Tides and Currents Weather Stations Pressure Air Temp Water Temp Dewpoint Dewpoint Depression Visibility Wind Speed Wind Dir Waves Ship Positions

Eurocargo Valencia

Last reported at 2015-May-28 13:21 UTC. Time now 2015-May-29 12:21 UTC.
Position N 34°14' E 032°53'.

Length 196 m; draft 6.9 m.

Type: Cargo ship. MMSI: 247579000.

Date/timePositionNaut miles runAvg speedWind from/ knotsBaromVisibWave heightAir tempDewpointWater temp
2015-May-28 13:21N 34°14' E 032°53'1114.0
2015-May-28 12:33N 34°22' E 033°02'1414.0
2015-May-28 11:33N 34°36' E 033°05'5 4.8
2015-May-28 10:32N 34°39' E 033°01'0 0.0
2015-May-28 09:32N 34°39' E 033°01'0 0.0
2015-May-28 08:32N 34°39' E 033°01'0 0.0
2015-May-28 07:32N 34°39' E 033°01'0 0.0
2015-May-28 06:32N 34°39' E 033°01'3 3.3
2015-May-28 05:34N 34°37' E 033°04'1211.7
2015-May-28 04:34N 34°31' E 032°51'1515.1
2015-May-28 03:33N 34°34' E 032°33'36514.4
2015-May-27 02:15N 35°34' E 025°13'11313.8
2015-May-26 18:05N 35°57' E 022°57'24114.5
2015-May-26 01:31N 38°58' E 019°37'1414.4
2015-May-26 00:33N 39°10' E 019°28'1714.5
2015-May-25 23:22N 39°24' E 019°16'1214.6
2015-May-25 22:32N 39°34' E 019°07'1714.7
2015-May-25 21:24N 39°49' E 018°57'2014.6
2015-May-25 20:03N 40°06' E 018°43'  
2015-May-20 18:05N 42°22' E 017°38'1016.4
2015-May-20 17:28N 42°20' E 017°51'1516.4
2015-May-20 16:33N 42°16' E 018°11'2016.1
2015-May-20 15:20N 42°12' E 018°36'1316.2
2015-May-20 14:33N 42°08' E 018°53'8 1.5
2015-May-20 09:15N 42°06' E 019°03'11314.3
2015-May-20 01:20N 40°13' E 019°04'1214.9
2015-May-20 00:33N 40°02' E 019°11'1515.2
2015-May-19 23:34N 39°48' E 019°19'1814.9
2015-May-19 22:22N 39°32' E 019°27'1314.7
2015-May-19 21:28N 39°20' E 019°35'1314.3
2015-May-19 20:34N 39°08' E 019°42'  
Track history (hours):
 
Tides and Currents Weather Stations Pressure Air Temp Water Temp Dewpoint Dewpoint Depression Visibility Wind Speed Wind Dir Waves Ship Positions

Eurocargo Valencia

Last reported at 2015-May-28 13:21 UTC. Time now 2015-May-29 12:21 UTC.
Position N 34°14' E 032°53'.

Length 196 m; draft 6.9 m.

Type: Cargo ship. MMSI: 247579000.

Date/timePositionNaut miles runAvg speedWind from/ knotsBaromVisibWave heightAir tempDewpointWater temp
2015-May-28 13:21N 34°14' E 032°53'1114.0
2015-May-28 12:33N 34°22' E 033°02'1414.0
2015-May-28 11:33N 34°36' E 033°05'5 4.8
2015-May-28 10:32N 34°39' E 033°01'0 0.0
2015-May-28 09:32N 34°39' E 033°01'0 0.0
2015-May-28 08:32N 34°39' E 033°01'0 0.0
2015-May-28 07:32N 34°39' E 033°01'0 0.0
2015-May-28 06:32N 34°39' E 033°01'3 3.3
2015-May-28 05:34N 34°37' E 033°04'1211.7
2015-May-28 04:34N 34°31' E 032°51'1515.1
2015-May-28 03:33N 34°34' E 032°33'36514.4
2015-May-27 02:15N 35°34' E 025°13'11313.8
2015-May-26 18:05N 35°57' E 022°57'24114.5
2015-May-26 01:31N 38°58' E 019°37'1414.4
2015-May-26 00:33N 39°10' E 019°28'1714.5
2015-May-25 23:22N 39°24' E 019°16'1214.6
2015-May-25 22:32N 39°34' E 019°07'1714.7
2015-May-25 21:24N 39°49' E 018°57'2014.6
2015-May-25 20:03N 40°06' E 018°43'  
2015-May-20 18:05N 42°22' E 017°38'1016.4
2015-May-20 17:28N 42°20' E 017°51'1516.4
2015-May-20 16:33N 42°16' E 018°11'2016.1
2015-May-20 15:20N 42°12' E 018°36'1316.2
2015-May-20 14:33N 42°08' E 018°53'8 1.5
2015-May-20 09:15N 42°06' E 019°03'11314.3
2015-May-20 01:20N 40°13' E 019°04'1214.9
2015-May-20 00:33N 40°02' E 019°11'1515.2
2015-May-19 23:34N 39°48' E 019°19'1814.9
2015-May-19 22:22N 39°32' E 019°27'1314.7
2015-May-19 21:28N 39°20' E 019°35'1314.3
2015-May-19 20:34N 39°08' E 019°42'  

Dump ship's entire track history